Rosebud, Canada
Current Conditions -  °F | °C
As of 6:31 AM on Sunday 23 Nov 2014 (Local Time) from CYYC Reporting Station
Scattered Clouds Scattered Clouds  
Wind Chill: 14°   Ceiling: Unl
Heat Index: 21°   Visibility: 15mi
Dew Point: 19°   Wind: 6mph
Humidity: 93%   Direction: 180°S
Pressure: 29.78"   Gusts: NA
Location:  51.3°N, 112.95°W
Report Text: CYYC 231331Z 18005KT 15SM SCT008 M06/M07 A2978 RMK SC3 SLP135
Loading
Personal Weather Stations






























Interactive Weather Map New forecast layout! Learn more

10-Day Weather Forecast

Advertisements
Track Severe Weather on mobile